Etusivu
METAR-TAF:

METAR-TAF

Lentoasemat :

Llano Municipal Airport

Llano, Texas, Yhdysvallat

Leveyspiiri: 30-47-01N, Pituuspiiri: 098-39-43W, korkeus merenpinnasta: 336 m

Tämänhetkinen sää

Tämä raportti tehtiin 26 minuuttia sitten, kello 02.15 UTC
tyyntä
Lämpötila 16°C
Kosteus 45%
Ilmanpaine 1019 hPa
Näkyvyys: 16.1 km
Muutamia pilviä 4500 ft:n korkeudessa
Muutamia pilviä 5500 ft:n korkeudessa
Hajanaisia pilviä 6500 ft:n korkeudessa

METAR: KAQO 250215Z AUTO 00000KT 10SM FEW045 FEW055 SCT065 16/04 A3008 RMK AO2

Aika: 20:41 (02:41 UTC)


TAF: puuttuu

Säähavainnot ja -ennusteet yli 4000 lentoasemalta (METAR- ja TAF-raportit).

Käytössä olevat sääasemat on merkitty karttaan keltaisilla ja punaisilla pisteillä.

Aseta hiiri pisteen päälle nähdäksesi sääaseman nimen.

Klikkaa sitten nähdäksesi säähavainnot ja -ennusteet.

Kartan vaihtaminen: klikkaa mustalla rastilla varustettuja vihreitä pisteitä, niin voit zoomata sisään; viivalla varustettua vihreää pistettä, niin voit zoomata ulos tai vihreitä nuolia, niin pääset viereisille kartoille.


METAR-TAF: